Time;durP1;ratioP1;P1;durP2;ratioP2;P2;SDS_P1;SDS_P2;PMS_P1;PMS_P2;Temp;Humidity;BMP_temperature;BMP_pressure;BME280_temperature;BME280_humidity;BME280_pressure;Samples;Min_cycle;Max_cycle;Signal;HPM_P1;HPM_P2
2022/03/26 00:00:21;;;;;;;51.20;25.00;;;9.90;99.90;;;;;;4976605;28;20215;-70
2022/03/26 00:02:48;;;;;;;42.10;21.90;;;9.90;99.90;;;;;;4994760;28;20184;-70
2022/03/26 00:05:14;;;;;;;42.57;22.10;;;9.90;99.90;;;;;;4978881;28;20192;-69
2022/03/26 00:07:39;;;;;;;45.63;22.83;;;9.80;99.90;;;;;;4977311;28;20259;-70
2022/03/26 00:10:05;;;;;;;53.43;24.17;;;9.80;99.90;;;;;;4976595;28;20227;-70
2022/03/26 00:12:31;;;;;;;44.13;23.57;;;9.80;99.90;;;;;;4959883;28;20196;-70
2022/03/26 00:14:58;;;;;;;45.93;22.47;;;9.70;99.90;;;;;;4960481;28;20193;-71
2022/03/26 00:17:25;;;;;;;49.23;24.13;;;9.70;99.90;;;;;;4976887;28;20315;-69
2022/03/26 00:19:51;;;;;;;46.53;23.23;;;9.70;99.90;;;;;;4992576;28;20199;-70
2022/03/26 00:22:17;;;;;;;42.17;21.37;;;9.70;99.90;;;;;;4981641;28;20216;-70
2022/03/26 00:24:43;;;;;;;46.13;22.90;;;9.60;99.90;;;;;;4994245;28;20215;-71
2022/03/26 00:27:09;;;;;;;57.47;23.90;;;9.60;99.90;;;;;;4977455;28;20658;-70
2022/03/26 00:29:34;;;;;;;46.47;23.53;;;9.60;99.90;;;;;;4975963;28;20196;-70
2022/03/26 00:32:02;;;;;;;47.73;24.00;;;9.50;99.90;;;;;;4992446;28;20200;-70
2022/03/26 00:34:27;;;;;;;44.10;22.10;;;9.50;99.90;;;;;;4994148;28;20220;-71
2022/03/26 00:36:53;;;;;;;40.23;21.33;;;9.50;99.90;;;;;;4986617;28;20752;-70
2022/03/26 00:39:19;;;;;;;52.37;22.53;;;9.50;99.90;;;;;;4986698;28;20626;-73
2022/03/26 00:41:44;;;;;;;45.57;22.97;;;9.50;99.90;;;;;;4960195;28;20216;-70
2022/03/26 00:44:10;;;;;;;48.90;25.63;;;9.50;99.90;;;;;;4976165;28;20203;-70
2022/03/26 00:46:36;;;;;;;52.47;21.80;;;9.50;99.90;;;;;;4976061;28;20196;-70
2022/03/26 00:49:01;;;;;;;44.73;24.37;;;9.40;99.90;;;;;;4988287;28;20704;-70
2022/03/26 00:51:27;;;;;;;47.90;24.77;;;9.30;99.90;;;;;;4996268;28;20184;-70
2022/03/26 00:53:53;;;;;;;45.23;21.73;;;9.30;99.90;;;;;;4962593;28;20309;-70
2022/03/26 00:56:19;;;;;;;44.40;23.27;;;9.30;99.90;;;;;;4993821;28;20223;-70
2022/03/26 00:58:44;;;;;;;42.77;22.73;;;9.30;99.90;;;;;;4983853;28;20263;-70
2022/03/26 01:01:11;;;;;;;46.57;23.70;;;9.20;99.90;;;;;;4959497;28;20713;-69
2022/03/26 01:03:37;;;;;;;39.83;19.50;;;9.20;99.90;;;;;;4985191;28;20222;-70
2022/03/26 01:06:04;;;;;;;43.67;21.10;;;9.20;99.90;;;;;;4975202;28;20232;-70
2022/03/26 01:08:29;;;;;;;43.93;22.73;;;9.20;99.90;;;;;;4976410;28;20200;-70
2022/03/26 01:10:55;;;;;;;43.97;21.33;;;9.20;99.90;;;;;;4975438;28;20193;-70
2022/03/26 01:13:23;;;;;;;49.13;22.20;;;9.20;99.90;;;;;;4975685;28;20189;-70
2022/03/26 01:15:48;;;;;;;44.97;21.03;;;9.20;99.90;;;;;;4975906;28;20224;-70
2022/03/26 01:18:14;;;;;;;48.73;20.90;;;9.20;99.90;;;;;;4959102;28;20200;-70
2022/03/26 01:20:40;;;;;;;39.43;21.77;;;9.10;99.90;;;;;;4975406;28;20192;-70
2022/03/26 01:23:05;;;;;;;40.73;22.90;;;9.10;99.90;;;;;;4975131;28;20668;-69
2022/03/26 01:25:31;;;;;;;52.17;23.23;;;9.00;99.90;;;;;;4985413;28;20246;-72
2022/03/26 01:27:57;;;;;;;38.90;21.40;;;9.00;99.90;;;;;;4993413;28;20184;-72
2022/03/26 01:30:24;;;;;;;47.00;22.57;;;9.00;99.90;;;;;;4975274;28;20208;-71
2022/03/26 01:32:50;;;;;;;48.30;23.43;;;9.00;99.90;;;;;;4975115;28;20180;-71
2022/03/26 01:35:16;;;;;;;36.73;20.50;;;9.00;99.90;;;;;;4993901;28;20239;-71
2022/03/26 01:37:42;;;;;;;42.53;21.53;;;9.00;99.90;;;;;;4981308;28;20217;-71
2022/03/26 01:40:08;;;;;;;41.83;21.97;;;9.00;99.90;;;;;;4975804;28;20188;-73
2022/03/26 01:42:34;;;;;;;44.13;21.47;;;8.90;99.90;;;;;;4987911;28;20687;-71
2022/03/26 01:44:59;;;;;;;42.10;20.53;;;8.90;99.90;;;;;;4976039;28;20200;-70
2022/03/26 01:47:25;;;;;;;44.43;21.10;;;8.80;99.90;;;;;;4974402;28;20195;-70
2022/03/26 01:49:51;;;;;;;40.70;22.53;;;8.80;99.90;;;;;;4975496;28;20188;-70
2022/03/26 01:52:17;;;;;;;40.63;21.50;;;8.70;99.90;;;;;;4974552;28;20343;-71
2022/03/26 01:54:44;;;;;;;44.80;23.07;;;8.60;99.90;;;;;;4974257;28;20227;-73
2022/03/26 01:57:10;;;;;;;40.00;21.43;;;8.50;99.90;;;;;;4981170;28;20569;-71
2022/03/26 01:59:37;;;;;;;41.53;20.60;;;8.50;99.90;;;;;;4992818;28;20258;-74
2022/03/26 02:02:05;;;;;;;42.93;21.40;;;8.50;99.90;;;;;;4990264;28;20595;-71
2022/03/26 02:04:31;;;;;;;45.27;23.77;;;8.50;99.90;;;;;;4977013;28;20676;-70
2022/03/26 02:06:56;;;;;;;40.03;20.07;;;8.40;99.90;;;;;;4993167;28;20388;-70
2022/03/26 02:09:22;;;;;;;44.87;21.67;;;8.30;99.90;;;;;;4987830;28;20192;-70
2022/03/26 02:11:48;;;;;;;44.50;21.83;;;8.30;99.90;;;;;;4974463;28;20193;-71
2022/03/26 02:14:14;;;;;;;39.73;21.70;;;8.30;99.90;;;;;;4974163;28;20197;-70
2022/03/26 02:16:42;;;;;;;44.17;22.03;;;8.20;99.90;;;;;;4957918;28;20817;-70
2022/03/26 02:19:10;;;;;;;49.33;20.93;;;8.20;99.90;;;;;;4976880;28;20216;-70
2022/03/26 02:21:37;;;;;;;43.27;23.37;;;8.20;99.90;;;;;;4984756;28;20189;-70
2022/03/26 02:24:05;;;;;;;48.33;23.00;;;8.20;99.90;;;;;;4973941;28;20192;-71
2022/03/26 02:26:31;;;;;;;45.40;23.00;;;8.10;99.90;;;;;;4975199;28;20196;-70
2022/03/26 02:29:04;;;;;;;48.67;22.87;;;8.10;99.90;;;;;;4973915;28;20189;-70
2022/03/26 02:31:29;;;;;;;47.63;21.03;;;8.10;99.90;;;;;;4959055;28;20552;-71
2022/03/26 02:33:55;;;;;;;45.33;21.20;;;8.00;99.90;;;;;;4973428;28;20280;-70
2022/03/26 02:36:21;;;;;;;46.40;20.10;;;8.00;99.90;;;;;;4973397;28;20224;-70
2022/03/26 02:38:46;;;;;;;45.20;22.47;;;7.90;99.90;;;;;;4971800;28;20602;-70
2022/03/26 02:41:12;;;;;;;45.00;21.83;;;7.90;99.90;;;;;;4975305;28;20196;-70
2022/03/26 02:43:38;;;;;;;39.47;20.07;;;7.90;99.90;;;;;;4973808;28;20197;-70
2022/03/26 02:46:04;;;;;;;38.20;20.93;;;7.90;99.90;;;;;;4973478;28;20737;-70
2022/03/26 02:48:30;;;;;;;45.03;22.27;;;7.90;99.90;;;;;;4982176;28;20654;-74
2022/03/26 02:50:56;;;;;;;42.90;21.73;;;7.90;99.90;;;;;;4973779;28;20188;-71
2022/03/26 02:53:21;;;;;;;40.50;20.80;;;7.90;99.90;;;;;;4983650;28;20719;-70
2022/03/26 02:55:47;;;;;;;37.83;20.37;;;8.00;99.90;;;;;;4941466;28;20232;-71
2022/03/26 02:58:13;;;;;;;44.03;21.67;;;8.00;99.90;;;;;;4952063;28;20204;-71
2022/03/26 03:00:39;;;;;;;38.50;19.07;;;8.00;99.90;;;;;;4959077;28;20193;-70
2022/03/26 03:03:08;;;;;;;46.73;20.30;;;8.00;99.90;;;;;;4989818;28;20266;-71
2022/03/26 03:05:34;;;;;;;46.83;22.17;;;7.90;99.90;;;;;;4976803;28;20204;-70
2022/03/26 03:08:01;;;;;;;44.00;23.17;;;7.90;99.90;;;;;;4988437;28;20596;-71
2022/03/26 03:10:28;;;;;;;46.53;21.30;;;7.90;99.90;;;;;;4977900;28;20188;-72
2022/03/26 03:12:54;;;;;;;44.93;22.83;;;7.80;99.90;;;;;;4973921;28;20188;-71
2022/03/26 03:15:20;;;;;;;46.57;22.23;;;7.90;99.90;;;;;;4974377;28;20208;-72
2022/03/26 03:17:48;;;;;;;45.20;20.93;;;7.80;99.90;;;;;;4988275;28;20276;-71
2022/03/26 03:20:15;;;;;;;44.27;21.40;;;7.80;99.90;;;;;;4988331;28;20656;-70
2022/03/26 03:22:41;;;;;;;44.30;20.63;;;7.90;99.90;;;;;;4991214;28;20203;-71
2022/03/26 03:25:08;;;;;;;41.80;20.40;;;7.80;99.90;;;;;;4983173;28;20193;-71
2022/03/26 03:27:35;;;;;;;43.33;20.53;;;7.80;99.90;;;;;;4977734;28;20200;-71
2022/03/26 03:30:01;;;;;;;41.03;21.40;;;7.70;99.90;;;;;;4957167;28;20188;-71
2022/03/26 03:32:26;;;;;;;49.03;21.83;;;7.70;99.90;;;;;;4959881;28;20274;-71
2022/03/26 03:34:52;;;;;;;35.40;19.70;;;7.70;99.90;;;;;;4991728;28;20275;-71
2022/03/26 03:37:18;;;;;;;43.43;20.20;;;7.70;99.90;;;;;;4978850;28;20232;-71
2022/03/26 03:39:44;;;;;;;43.73;22.53;;;7.60;99.90;;;;;;4982817;28;20667;-71
2022/03/26 03:42:11;;;;;;;45.37;21.47;;;7.60;99.90;;;;;;4990890;28;20251;-72
2022/03/26 03:44:37;;;;;;;47.00;21.63;;;7.50;99.90;;;;;;4974199;28;20189;-72
2022/03/26 03:47:03;;;;;;;47.60;21.70;;;7.50;99.90;;;;;;4973993;28;20556;-71
2022/03/26 03:49:31;;;;;;;41.03;21.90;;;7.50;99.90;;;;;;4974402;28;20204;-71
2022/03/26 03:51:58;;;;;;;50.83;21.83;;;7.40;99.90;;;;;;4967656;28;20667;-71
2022/03/26 03:54:24;;;;;;;41.90;21.27;;;7.40;99.90;;;;;;4983242;28;20196;-71
2022/03/26 03:56:49;;;;;;;46.57;22.73;;;7.30;99.90;;;;;;4962975;28;20216;-70
2022/03/26 03:59:15;;;;;;;47.50;23.20;;;7.20;99.90;;;;;;4975058;28;20559;-70
2022/03/26 04:01:41;;;;;;;43.70;20.80;;;7.20;99.90;;;;;;4962552;28;20196;-70
2022/03/26 04:04:07;;;;;;;43.53;22.50;;;7.20;99.90;;;;;;4964501;28;20189;-70
2022/03/26 04:06:32;;;;;;;46.63;22.73;;;7.20;99.90;;;;;;4973903;28;20642;-71
2022/03/26 04:08:58;;;;;;;42.97;20.43;;;7.20;99.90;;;;;;4959106;28;20184;-71
2022/03/26 04:11:24;;;;;;;41.90;19.63;;;7.20;99.90;;;;;;4969449;28;20224;-71
2022/03/26 04:13:53;;;;;;;44.13;20.53;;;7.20;99.90;;;;;;4957279;28;20188;-71
2022/03/26 04:16:23;;;;;;;44.93;20.97;;;7.10;99.90;;;;;;4972748;28;20646;-70
2022/03/26 04:18:50;;;;;;;44.87;22.53;;;7.10;99.90;;;;;;4973538;28;20201;-71
2022/03/26 04:21:16;;;;;;;43.90;22.57;;;7.10;99.90;;;;;;4973798;28;20193;-69
2022/03/26 04:23:42;;;;;;;41.53;21.63;;;7.00;99.90;;;;;;4967200;28;20193;-72
2022/03/26 04:26:11;;;;;;;47.43;21.73;;;7.00;99.90;;;;;;4976662;28;20188;-70
2022/03/26 04:28:36;;;;;;;40.83;21.00;;;6.90;99.90;;;;;;4975424;28;20717;-70
2022/03/26 04:31:04;;;;;;;44.83;21.73;;;6.90;99.90;;;;;;4980064;28;20280;-71
2022/03/26 04:33:30;;;;;;;39.67;20.80;;;6.90;99.90;;;;;;4956535;28;20240;-71
2022/03/26 04:35:55;;;;;;;44.33;22.73;;;6.80;99.90;;;;;;4940391;28;20228;-71
2022/03/26 04:38:21;;;;;;;45.73;20.83;;;6.80;99.90;;;;;;4987736;28;20279;-71
2022/03/26 04:40:49;;;;;;;39.60;20.07;;;6.80;99.90;;;;;;4975420;28;20278;-71
2022/03/26 04:43:16;;;;;;;44.53;22.43;;;6.70;99.90;;;;;;4982992;28;20184;-70
2022/03/26 04:45:42;;;;;;;42.33;20.23;;;6.70;99.90;;;;;;4944736;28;20224;-71
2022/03/26 04:48:08;;;;;;;45.53;21.47;;;6.60;99.90;;;;;;4959693;28;20205;-70
2022/03/26 04:50:33;;;;;;;43.00;20.27;;;6.60;99.90;;;;;;4975607;28;20201;-70
2022/03/26 04:52:59;;;;;;;47.47;23.93;;;6.60;99.90;;;;;;4959898;28;20197;-71
2022/03/26 04:55:25;;;;;;;44.03;20.20;;;6.60;99.90;;;;;;4959548;28;20260;-71
2022/03/26 04:57:54;;;;;;;40.93;21.90;;;6.60;99.90;;;;;;4959883;28;20201;-71
2022/03/26 05:00:20;;;;;;;43.77;22.40;;;6.60;99.90;;;;;;4976065;28;20199;-71
2022/03/26 05:02:47;;;;;;;47.83;20.77;;;6.60;99.90;;;;;;4943823;28;20181;-70
2022/03/26 05:05:14;;;;;;;49.30;21.27;;;6.60;99.90;;;;;;4975748;28;20181;-71
2022/03/26 05:07:45;;;;;;;45.17;21.00;;;6.50;99.90;;;;;;4974834;28;20283;-70
2022/03/26 05:10:22;;;;;;;50.17;21.40;;;6.50;99.90;;;;;;4978554;28;20264;-70
2022/03/26 05:12:49;;;;;;;48.37;22.07;;;6.50;99.90;;;;;;4959326;28;20212;-70
2022/03/26 05:15:16;;;;;;;42.30;20.47;;;6.50;99.90;;;;;;4975445;28;20188;-71
2022/03/26 05:17:42;;;;;;;43.50;24.53;;;6.40;99.90;;;;;;4975625;28;20603;-70
2022/03/26 05:20:09;;;;;;;41.90;20.77;;;6.40;99.90;;;;;;4989129;28;20729;-70
2022/03/26 05:22:35;;;;;;;43.00;22.77;;;6.40;99.90;;;;;;4977937;28;20196;-70
2022/03/26 05:25:02;;;;;;;43.30;22.17;;;6.40;99.90;;;;;;4980601;28;20181;-70
2022/03/26 05:27:27;;;;;;;47.70;22.53;;;6.40;99.90;;;;;;4975528;28;20196;-70
2022/03/26 05:29:54;;;;;;;40.23;19.03;;;6.40;99.90;;;;;;4984477;28;20652;-71
2022/03/26 05:32:19;;;;;;;45.63;20.43;;;6.40;99.90;;;;;;4964868;28;20205;-70
2022/03/26 05:34:46;;;;;;;48.97;22.97;;;6.30;99.90;;;;;;4988937;28;20223;-70
2022/03/26 05:37:12;;;;;;;41.90;18.90;;;6.30;99.90;;;;;;4974574;28;20368;-71
2022/03/26 05:39:38;;;;;;;55.63;23.73;;;6.30;99.90;;;;;;4995486;28;20187;-70
2022/03/26 05:42:05;;;;;;;42.10;20.43;;;6.30;99.90;;;;;;4977128;28;20192;-70
2022/03/26 05:44:31;;;;;;;44.10;20.97;;;6.30;99.90;;;;;;4993280;28;20220;-70
2022/03/26 05:46:57;;;;;;;46.37;22.67;;;6.30;99.90;;;;;;4984675;28;20200;-70
2022/03/26 05:49:26;;;;;;;43.23;20.03;;;6.30;99.90;;;;;;4976032;28;20203;-70
2022/03/26 05:51:51;;;;;;;45.73;21.03;;;6.30;99.90;;;;;;4987994;28;20298;-71
2022/03/26 05:54:18;;;;;;;47.03;21.40;;;6.30;99.90;;;;;;4985085;28;20294;-71
2022/03/26 05:56:51;;;;;;;46.43;21.17;;;6.40;99.90;;;;;;4977042;28;20286;-71
2022/03/26 05:59:21;;;;;;;44.50;22.43;;;6.50;99.90;;;;;;4985681;28;20197;-71
2022/03/26 06:01:51;;;;;;;53.80;22.50;;;6.50;99.90;;;;;;4958713;28;20664;-72
2022/03/26 06:04:17;;;;;;;42.80;22.33;;;6.60;99.90;;;;;;4958493;28;20716;-71
2022/03/26 06:06:43;;;;;;;52.03;22.60;;;6.70;99.90;;;;;;4975692;28;20193;-71
2022/03/26 06:09:10;;;;;;;40.63;21.67;;;6.80;99.90;;;;;;4974276;28;20220;-71
2022/03/26 06:11:36;;;;;;;53.67;22.37;;;6.90;99.90;;;;;;4974523;28;20220;-71
2022/03/26 06:14:02;;;;;;;49.80;24.80;;;7.00;99.90;;;;;;4958264;28;20199;-71
2022/03/26 06:16:28;;;;;;;42.47;20.93;;;7.00;99.90;;;;;;4974183;28;20216;-71
2022/03/26 06:18:54;;;;;;;56.30;23.23;;;7.20;99.90;;;;;;4957969;28;20330;-71
2022/03/26 06:21:20;;;;;;;49.57;21.53;;;7.30;99.90;;;;;;4974281;28;20189;-70
2022/03/26 06:23:45;;;;;;;43.97;22.33;;;7.40;99.90;;;;;;4975658;28;20697;-71
2022/03/26 06:26:14;;;;;;;48.07;21.67;;;7.50;99.90;;;;;;4973935;28;20193;-69
2022/03/26 06:28:40;;;;;;;44.87;22.50;;;7.60;99.90;;;;;;4974872;28;20193;-70
2022/03/26 06:31:08;;;;;;;48.27;22.33;;;7.60;99.90;;;;;;4974080;28;20189;-70
2022/03/26 06:33:35;;;;;;;47.60;20.80;;;7.70;99.90;;;;;;4958470;28;20196;-70
2022/03/26 06:36:01;;;;;;;44.47;20.77;;;7.70;99.90;;;;;;4974847;28;20666;-70
2022/03/26 06:38:31;;;;;;;45.37;21.30;;;7.80;99.90;;;;;;4981351;28;20188;-70
2022/03/26 06:40:58;;;;;;;44.47;20.10;;;7.90;99.90;;;;;;4958654;28;20205;-70
2022/03/26 06:43:24;;;;;;;49.43;22.30;;;8.00;99.90;;;;;;4957502;28;20572;-70
2022/03/26 06:45:50;;;;;;;40.10;21.03;;;8.10;99.90;;;;;;4973575;28;20248;-70
2022/03/26 06:48:16;;;;;;;37.53;19.27;;;8.10;99.90;;;;;;4974789;28;20653;-70
2022/03/26 06:50:42;;;;;;;40.63;20.93;;;8.20;99.90;;;;;;4974068;28;20220;-70
2022/03/26 06:53:07;;;;;;;51.00;24.90;;;8.30;99.90;;;;;;4975247;28;20199;-70
2022/03/26 06:55:33;;;;;;;49.77;24.50;;;8.40;99.90;;;;;;4974518;28;20213;-70
2022/03/26 06:57:59;;;;;;;51.47;24.43;;;8.60;99.90;;;;;;4973339;28;20655;-70
2022/03/26 07:00:25;;;;;;;50.27;22.37;;;8.70;99.90;;;;;;4973466;28;20188;-70
2022/03/26 07:02:50;;;;;;;46.67;22.77;;;8.70;99.90;;;;;;4973354;28;20193;-70
2022/03/26 07:05:16;;;;;;;50.23;23.87;;;8.60;99.90;;;;;;4967900;28;20188;-70
2022/03/26 07:07:42;;;;;;;52.63;23.97;;;8.70;99.90;;;;;;4989686;28;20579;-70
2022/03/26 07:10:08;;;;;;;47.07;24.10;;;8.90;99.90;;;;;;4957488;28;20515;-72
2022/03/26 07:12:35;;;;;;;46.53;22.63;;;8.90;99.90;;;;;;4957648;28;20246;-69
2022/03/26 07:15:01;;;;;;;43.97;24.23;;;8.80;99.90;;;;;;4973224;28;20283;-70
2022/03/26 07:17:27;;;;;;;47.73;22.40;;;8.80;99.90;;;;;;4956958;28;20771;-69
2022/03/26 07:19:53;;;;;;;47.20;23.43;;;8.70;99.90;;;;;;4973094;28;20335;-71
2022/03/26 07:22:19;;;;;;;48.47;23.03;;;8.80;99.90;;;;;;4973106;28;20283;-70
2022/03/26 07:24:44;;;;;;;45.53;22.60;;;8.80;99.90;;;;;;4956872;28;20188;-70
2022/03/26 07:27:10;;;;;;;43.60;21.13;;;9.00;99.90;;;;;;4969963;28;20199;-70
2022/03/26 07:29:38;;;;;;;48.00;23.20;;;10.10;99.90;;;;;;4967018;28;20200;-70
2022/03/26 07:32:06;;;;;;;47.63;22.77;;;11.20;99.90;;;;;;4969699;28;20195;-70
2022/03/26 07:34:32;;;;;;;51.03;21.87;;;12.60;99.90;;;;;;4974425;28;20203;-70
2022/03/26 07:36:57;;;;;;;39.00;22.20;;;12.70;99.90;;;;;;4966540;28;20290;-71
2022/03/26 07:39:23;;;;;;;45.58;22.77;;;12.80;99.90;;;;;;4974604;28;20195;-70
2022/03/26 07:41:49;;;;;;;44.28;21.42;;;13.10;99.90;;;;;;4974080;28;20648;-70
2022/03/26 07:44:15;;;;;;;47.55;22.83;;;13.20;99.90;;;;;;4973165;28;20191;-70
2022/03/26 07:46:40;;;;;;;43.40;24.50;;;13.50;99.90;;;;;;4977227;28;20618;-71
2022/03/26 07:49:06;;;;;;;44.15;22.73;;;13.90;99.90;;;;;;4965995;28;20192;-71
2022/03/26 07:51:35;;;;;;;45.20;23.52;;;14.00;99.90;;;;;;4972586;28;20196;-74
2022/03/26 07:54:00;;;;;;;48.50;25.73;;;14.20;99.90;;;;;;4980545;28;20212;-72
2022/03/26 07:56:26;;;;;;;38.38;23.20;;;14.30;99.90;;;;;;4986088;28;20258;-71
2022/03/26 07:58:52;;;;;;;43.28;23.98;;;14.30;99.90;;;;;;4956200;28;20199;-71
2022/03/26 08:01:18;;;;;;;43.28;22.48;;;14.30;99.90;;;;;;4974675;28;20524;-72
2022/03/26 08:03:44;;;;;;;46.40;22.75;;;15.00;99.90;;;;;;4956277;28;20208;-70
2022/03/26 08:06:09;;;;;;;43.20;24.67;;;15.10;99.90;;;;;;4972169;28;20193;-71
2022/03/26 08:08:35;;;;;;;43.08;23.15;;;15.30;99.90;;;;;;4972522;28;20189;-71
2022/03/26 08:11:02;;;;;;;41.83;23.23;;;15.10;99.90;;;;;;4974565;28;20235;-70
2022/03/26 08:13:28;;;;;;;42.53;21.75;;;14.90;99.90;;;;;;4976865;28;20220;-70
2022/03/26 08:15:53;;;;;;;45.42;24.85;;;15.40;99.90;;;;;;4972680;28;20243;-70
2022/03/26 08:18:19;;;;;;;43.97;25.20;;;15.40;99.90;;;;;;4983898;28;20249;-71
2022/03/26 08:20:45;;;;;;;50.45;23.65;;;16.20;99.90;;;;;;4976546;28;20189;-72
2022/03/26 08:23:11;;;;;;;46.40;24.05;;;16.70;99.90;;;;;;4985631;28;20286;-71
2022/03/26 08:28:21;;;;;;;40.60;21.60;;;17.30;99.90;;;;;;4963119;28;20354;-71
2022/03/26 08:30:47;;;;;;;46.25;24.40;;;17.70;99.90;;;;;;4960120;28;20189;-71
2022/03/26 08:33:12;;;;;;;46.60;24.58;;;18.20;99.90;;;;;;4944272;28;20188;-72
2022/03/26 08:35:41;;;;;;;44.28;23.77;;;18.40;99.90;;;;;;4976885;28;20589;-72
2022/03/26 08:38:07;;;;;;;41.70;23.98;;;18.30;99.90;;;;;;4977052;28;20601;-74
2022/03/26 08:40:34;;;;;;;46.08;23.42;;;18.80;99.90;;;;;;4976124;28;20188;-72
2022/03/26 08:43:00;;;;;;;42.45;23.80;;;19.50;99.90;;;;;;4975798;28;20268;-71
2022/03/26 08:45:30;;;;;;;53.95;27.10;;;18.90;99.90;;;;;;4975600;28;20191;-72
2022/03/26 08:47:56;;;;;;;48.03;25.65;;;18.00;99.90;;;;;;4959883;28;20227;-73
2022/03/26 08:50:22;;;;;;;40.38;23.77;;;17.70;99.90;;;;;;4968992;28;20205;-72
2022/03/26 08:52:48;;;;;;;44.35;24.33;;;17.00;99.90;;;;;;4975379;28;20196;-71
2022/03/26 08:55:18;;;;;;;52.85;29.30;;;16.10;99.90;;;;;;4975345;28;20548;-71
2022/03/26 08:57:44;;;;;;;52.55;25.45;;;15.10;99.90;;;;;;4976106;28;20211;-71
2022/03/26 09:00:12;;;;;;;45.70;24.50;;;14.80;99.90;;;;;;4984495;28;20264;-71
2022/03/26 09:02:38;;;;;;;49.35;25.05;;;14.50;99.90;;;;;;4968324;28;20196;-71
2022/03/26 09:05:08;;;;;;;49.08;25.10;;;14.00;99.90;;;;;;4971751;28;20236;-71
2022/03/26 09:07:34;;;;;;;48.72;27.77;;;13.70;99.90;;;;;;4975205;28;20199;-71
2022/03/26 09:10:00;;;;;;;57.65;26.50;;;13.60;99.90;;;;;;4976578;28;20208;-71
2022/03/26 09:12:25;;;;;;;53.42;30.13;;;13.60;99.90;;;;;;4975959;28;20219;-71
2022/03/26 09:14:51;;;;;;;46.58;27.58;;;13.60;99.90;;;;;;4976083;28;20637;-71
2022/03/26 09:17:17;;;;;;;49.17;26.83;;;14.10;99.90;;;;;;4976000;28;20220;-71
2022/03/26 09:19:42;;;;;;;56.03;27.13;;;14.20;99.90;;;;;;4976344;28;20188;-71
2022/03/26 09:22:08;;;;;;;48.83;25.33;;;14.00;99.90;;;;;;4970636;28;20280;-71
2022/03/26 09:24:34;;;;;;;54.22;28.90;;;13.90;99.90;;;;;;4977165;28;20263;-70
2022/03/26 09:27:00;;;;;;;47.17;26.42;;;14.40;99.90;;;;;;4976221;28;20192;-70
2022/03/26 09:29:25;;;;;;;55.05;28.55;;;14.40;99.90;;;;;;4973510;28;20220;-70
2022/03/26 09:31:51;;;;;;;57.35;27.83;;;14.30;99.90;;;;;;4987790;28;20215;-70
2022/03/26 09:34:17;;;;;;;55.90;30.30;;;14.20;99.90;;;;;;4987673;28;20181;-69
2022/03/26 09:36:43;;;;;;;50.08;27.52;;;14.10;99.90;;;;;;4983533;28;20223;-71
2022/03/26 09:39:09;;;;;;;50.20;28.38;;;14.30;99.90;;;;;;4978058;28;20610;-73
2022/03/26 09:41:35;;;;;;;51.75;27.40;;;14.60;99.90;;;;;;4974656;28;20191;-73
2022/03/26 09:44:02;;;;;;;49.67;26.15;;;14.80;99.90;;;;;;4975339;28;20192;-72
2022/03/26 09:46:28;;;;;;;50.53;27.45;;;15.20;99.90;;;;;;4976152;28;20208;-72
2022/03/26 09:48:54;;;;;;;53.75;26.10;;;15.50;99.90;;;;;;4974864;28;20192;-70
2022/03/26 09:51:21;;;;;;;53.33;27.73;;;15.40;99.90;;;;;;4979211;28;20757;-71
2022/03/26 09:53:52;;;;;;;55.63;27.42;;;15.00;99.90;;;;;;4989695;28;20192;-71
2022/03/26 09:56:19;;;;;;;55.35;28.35;;;15.10;99.90;;;;;;4981765;28;20212;-70
2022/03/26 09:58:45;;;;;;;54.67;27.35;;;14.90;99.90;;;;;;4982953;28;20200;-72
2022/03/26 10:01:10;;;;;;;48.95;26.88;;;14.70;99.90;;;;;;4982595;28;20240;-71
2022/03/26 10:03:39;;;;;;;44.85;25.17;;;14.90;99.90;;;;;;4978496;28;20696;-68
2022/03/26 10:06:09;;;;;;;55.22;24.98;;;14.80;99.90;;;;;;4976253;28;20196;-70
2022/03/26 10:08:39;;;;;;;47.05;25.15;;;15.00;99.90;;;;;;4981859;28;20645;-68
2022/03/26 10:11:06;;;;;;;50.92;27.13;;;15.40;99.90;;;;;;4986655;28;20185;-71
2022/03/26 10:13:37;;;;;;;51.20;25.63;;;15.20;99.90;;;;;;4975530;28;20268;-68
2022/03/26 10:16:06;;;;;;;52.30;25.83;;;15.20;99.90;;;;;;4979611;28;20204;-72
2022/03/26 10:18:37;;;;;;;48.17;25.33;;;15.30;99.90;;;;;;4985870;28;20216;-68
2022/03/26 10:21:07;;;;;;;43.40;24.02;;;15.20;99.90;;;;;;4975184;28;20207;-68
2022/03/26 10:23:33;;;;;;;51.50;26.55;;;15.40;99.90;;;;;;4980284;28;20187;-70
2022/03/26 10:26:11;;;;;;;52.72;27.25;;;15.40;99.90;;;;;;4975010;28;20215;-68
2022/03/26 10:28:40;;;;;;;47.80;24.85;;;15.50;99.90;;;;;;4973310;28;20296;-69
2022/03/26 10:34:20;;;;;;;59.70;28.60;;;15.90;99.90;;;;;;4978003;28;20223;-67
2022/03/26 10:36:57;;;;;;;47.47;24.85;;;15.80;99.90;;;;;;4973432;28;20216;-73
2022/03/26 10:39:25;;;;;;;52.55;25.40;;;16.00;99.90;;;;;;4974499;28;20192;-70
2022/03/26 10:41:54;;;;;;;50.25;24.50;;;15.90;99.90;;;;;;4980720;28;20199;-69
2022/03/26 10:44:28;;;;;;;51.83;23.95;;;15.90;99.90;;;;;;4980555;28;20189;-73
2022/03/26 10:46:56;;;;;;;52.17;26.13;;;15.90;99.90;;;;;;4974788;28;20718;-72
2022/03/26 10:49:33;;;;;;;43.05;25.25;;;15.80;99.90;;;;;;4975307;28;20189;-68
2022/03/26 10:52:10;;;;;;;51.65;23.60;;;15.90;99.90;;;;;;4962907;28;20275;-69
2022/03/26 10:54:36;;;;;;;44.13;25.48;;;16.20;99.90;;;;;;4983530;28;20184;-73
2022/03/26 10:57:03;;;;;;;54.55;26.73;;;16.30;99.90;;;;;;4974685;28;20220;-72
2022/03/26 10:59:30;;;;;;;56.30;25.52;;;16.40;99.90;;;;;;4974404;28;20317;-70
2022/03/26 11:01:57;;;;;;;47.15;23.38;;;16.20;99.90;;;;;;4978558;28;20188;-70
2022/03/26 11:04:25;;;;;;;48.65;24.50;;;16.20;99.90;;;;;;4976117;28;20192;-70
2022/03/26 11:06:51;;;;;;;56.00;27.10;;;16.10;99.90;;;;;;4974355;28;20188;-64
2022/03/26 11:09:16;;;;;;;56.13;25.75;;;16.20;99.90;;;;;;4956688;28;20247;-67
2022/03/26 11:11:48;;;;;;;44.63;23.98;;;16.30;99.90;;;;;;4989343;28;20208;-68
2022/03/26 11:14:33;;;;;;;50.33;25.17;;;16.30;99.90;;;;;;4972594;28;20193;-69
2022/03/26 11:17:26;;;;;;;52.40;23.58;;;16.50;99.90;;;;;;4974767;28;20271;-69
2022/03/26 11:20:19;;;;;;;50.78;23.77;;;16.60;99.90;;;;;;4974921;28;20188;-68
2022/03/26 11:23:05;;;;;;;52.95;24.98;;;16.70;99.90;;;;;;4981199;28;20714;-70
2022/03/26 11:25:45;;;;;;;48.15;25.08;;;16.60;99.90;;;;;;4975722;28;20188;-70
2022/03/26 11:28:36;;;;;;;51.28;26.58;;;16.50;99.90;;;;;;4980310;28;20188;-70
2022/03/26 11:31:37;;;;;;;53.47;24.20;;;16.50;99.90;;;;;;4974299;28;20223;-71
2022/03/26 11:34:05;;;;;;;49.33;26.58;;;16.50;99.90;;;;;;4941774;28;20618;-71
2022/03/26 11:36:31;;;;;;;47.20;23.45;;;16.60;99.90;;;;;;4972482;28;20229;-67
2022/03/26 11:39:11;;;;;;;45.80;23.20;;;16.70;99.90;;;;;;4973533;28;20200;-78
2022/03/26 11:41:39;;;;;;;52.63;23.38;;;16.70;99.90;;;;;;4989728;28;20180;-77
2022/03/26 11:44:09;;;;;;;42.17;23.67;;;16.90;99.90;;;;;;4986366;28;20195;-70
2022/03/26 11:52:34;;;;;;;36.17;19.90;;;17.20;99.90;;;;;;4960430;28;20189;-78
2022/03/26 11:55:10;;;;;;;43.13;21.70;;;17.00;99.90;;;;;;4978503;28;20185;-74
2022/03/26 11:57:36;;;;;;;47.22;24.00;;;17.10;99.90;;;;;;4976789;28;20275;-70
2022/03/26 12:00:07;;;;;;;43.70;24.17;;;17.20;99.90;;;;;;4979079;28;20641;-70
2022/03/26 12:02:35;;;;;;;46.78;23.98;;;17.20;99.90;;;;;;4985409;28;20184;-69
2022/03/26 12:08:29;;;;;;;55.85;22.30;;;17.20;99.90;;;;;;4988086;28;20195;-68
2022/03/26 12:10:54;;;;;;;44.42;21.00;;;17.40;99.90;;;;;;4975499;28;20197;-69
2022/03/26 12:13:22;;;;;;;42.42;23.73;;;17.30;99.90;;;;;;4988107;28;20191;-67
2022/03/26 12:16:05;;;;;;;43.63;21.30;;;17.50;99.90;;;;;;4987638;28;20220;-64
2022/03/26 12:18:35;;;;;;;44.63;24.52;;;17.40;99.90;;;;;;4976010;28;20592;-67
2022/03/26 12:21:09;;;;;;;49.67;24.88;;;17.30;99.90;;;;;;4975723;28;20183;-68
2022/03/26 12:23:38;;;;;;;39.63;21.58;;;17.30;99.90;;;;;;4986918;28;20254;-68
2022/03/26 12:26:06;;;;;;;36.50;21.55;;;17.60;99.90;;;;;;4985990;28;20699;-68
2022/03/26 12:28:36;;;;;;;44.67;21.25;;;17.60;99.90;;;;;;4982211;28;20267;-66
2022/03/26 12:31:04;;;;;;;44.55;20.25;;;17.50;99.90;;;;;;4977432;28;20700;-68
2022/03/26 12:33:45;;;;;;;43.63;20.92;;;17.30;99.90;;;;;;4976600;28;20184;-69
2022/03/26 12:36:12;;;;;;;34.13;19.02;;;17.50;99.90;;;;;;4976435;28;20322;-69
2022/03/26 12:38:39;;;;;;;40.60;18.80;;;17.70;99.90;;;;;;4980641;28;20527;-68
2022/03/26 12:41:07;;;;;;;45.50;20.65;;;17.90;99.90;;;;;;4980988;28;20642;-67
2022/03/26 12:43:34;;;;;;;38.92;21.58;;;17.70;99.90;;;;;;4974366;28;20659;-66
2022/03/26 12:46:05;;;;;;;40.20;21.25;;;17.80;99.90;;;;;;4981939;28;20597;-65
2022/03/26 12:48:31;;;;;;;34.38;20.50;;;17.90;99.90;;;;;;4975645;28;20181;-66